sensor_id;sensor_type;location;lat;lon;timestamp;temperature;humidity
64549;DHT22;49838;51.798;10.954;2023-03-14T00:02:02;17.50;49.90
64549;DHT22;49838;51.798;10.954;2023-03-14T00:04:29;17.50;49.90
64549;DHT22;49838;51.798;10.954;2023-03-14T00:06:57;17.50;49.90
64549;DHT22;49838;51.798;10.954;2023-03-14T00:09:24;17.50;49.90
64549;DHT22;49838;51.798;10.954;2023-03-14T00:11:52;17.50;50.50
64549;DHT22;49838;51.798;10.954;2023-03-14T00:14:20;17.50;49.90
64549;DHT22;49838;51.798;10.954;2023-03-14T00:16:48;17.40;49.80
64549;DHT22;49838;51.798;10.954;2023-03-14T00:19:18;17.40;49.80
64549;DHT22;49838;51.798;10.954;2023-03-14T00:21:45;17.40;49.80
64549;DHT22;49838;51.798;10.954;2023-03-14T00:24:13;17.40;49.80
64549;DHT22;49838;51.798;10.954;2023-03-14T00:26:40;17.40;49.80
64549;DHT22;49838;51.798;10.954;2023-03-14T00:29:08;17.40;49.80
64549;DHT22;49838;51.798;10.954;2023-03-14T00:31:35;17.30;49.70
64549;DHT22;49838;51.798;10.954;2023-03-14T00:34:02;17.30;49.70
64549;DHT22;49838;51.798;10.954;2023-03-14T00:36:31;17.30;49.60
64549;DHT22;49838;51.798;10.954;2023-03-14T00:38:58;17.30;49.60
64549;DHT22;49838;51.798;10.954;2023-03-14T00:41:26;17.30;49.60
64549;DHT22;49838;51.798;10.954;2023-03-14T00:43:53;17.30;49.70
64549;DHT22;49838;51.798;10.954;2023-03-14T00:46:20;17.20;49.50
64549;DHT22;49838;51.798;10.954;2023-03-14T00:48:48;17.20;49.60
64549;DHT22;49838;51.798;10.954;2023-03-14T00:51:15;17.20;49.50
64549;DHT22;49838;51.798;10.954;2023-03-14T00:53:44;17.20;49.60
64549;DHT22;49838;51.798;10.954;2023-03-14T00:56:12;17.20;49.50
64549;DHT22;49838;51.798;10.954;2023-03-14T00:58:40;17.20;49.40
64549;DHT22;49838;51.798;10.954;2023-03-14T01:01:07;17.20;49.40
64549;DHT22;49838;51.798;10.954;2023-03-14T01:03:36;17.20;49.40
64549;DHT22;49838;51.798;10.954;2023-03-14T01:06:07;17.20;49.40
64549;DHT22;49838;51.798;10.954;2023-03-14T01:08:35;17.20;49.50
64549;DHT22;49838;51.798;10.954;2023-03-14T01:11:06;17.10;49.40
64549;DHT22;49838;51.798;10.954;2023-03-14T01:13:35;17.10;49.30
64549;DHT22;49838;51.798;10.954;2023-03-14T01:16:03;17.10;49.40
64549;DHT22;49838;51.798;10.954;2023-03-14T01:18:32;17.10;49.40
64549;DHT22;49838;51.798;10.954;2023-03-14T01:21:00;17.00;49.30
64549;DHT22;49838;51.798;10.954;2023-03-14T01:23:28;17.10;49.40
64549;DHT22;49838;51.798;10.954;2023-03-14T01:25:55;17.10;49.30
64549;DHT22;49838;51.798;10.954;2023-03-14T01:28:23;17.10;49.30
64549;DHT22;49838;51.798;10.954;2023-03-14T01:30:51;17.00;49.20
64549;DHT22;49838;51.798;10.954;2023-03-14T01:33:18;17.00;49.20
64549;DHT22;49838;51.798;10.954;2023-03-14T01:35:45;17.00;49.20
64549;DHT22;49838;51.798;10.954;2023-03-14T01:38:12;17.00;49.20
64549;DHT22;49838;51.798;10.954;2023-03-14T01:40:43;17.00;49.20
64549;DHT22;49838;51.798;10.954;2023-03-14T01:43:14;17.00;49.30
64549;DHT22;49838;51.798;10.954;2023-03-14T01:48:45;17.00;49.30
64549;DHT22;49838;51.798;10.954;2023-03-14T01:51:18;17.00;49.30
64549;DHT22;49838;51.798;10.954;2023-03-14T01:53:51;17.00;49.30
64549;DHT22;49838;51.798;10.954;2023-03-14T01:56:22;17.00;49.30
64549;DHT22;49838;51.798;10.954;2023-03-14T01:58:50;17.00;49.20
64549;DHT22;49838;51.798;10.954;2023-03-14T02:01:21;17.10;49.20
64549;DHT22;49838;51.798;10.954;2023-03-14T02:03:53;17.10;49.20
64549;DHT22;49838;51.798;10.954;2023-03-14T02:06:22;17.10;49.10
64549;DHT22;49838;51.798;10.954;2023-03-14T02:08:53;17.10;49.00
64549;DHT22;49838;51.798;10.954;2023-03-14T02:11:21;17.10;49.20
64549;DHT22;49838;51.798;10.954;2023-03-14T02:13:53;17.10;49.10
64549;DHT22;49838;51.798;10.954;2023-03-14T02:16:23;17.10;49.10
64549;DHT22;49838;51.798;10.954;2023-03-14T02:18:51;17.10;49.10
64549;DHT22;49838;51.798;10.954;2023-03-14T02:21:20;17.10;49.10
64549;DHT22;49838;51.798;10.954;2023-03-14T02:23:57;17.10;49.10
64549;DHT22;49838;51.798;10.954;2023-03-14T02:26:30;17.00;48.90
64549;DHT22;49838;51.798;10.954;2023-03-14T02:29:04;17.00;48.90
64549;DHT22;49838;51.798;10.954;2023-03-14T02:31:32;17.00;48.90
64549;DHT22;49838;51.798;10.954;2023-03-14T02:34:00;17.00;48.90
64549;DHT22;49838;51.798;10.954;2023-03-14T02:36:28;16.90;48.90
64549;DHT22;49838;51.798;10.954;2023-03-14T02:38:58;16.90;49.00
64549;DHT22;49838;51.798;10.954;2023-03-14T02:41:34;16.90;48.90
64549;DHT22;49838;51.798;10.954;2023-03-14T02:44:01;16.90;48.80
64549;DHT22;49838;51.798;10.954;2023-03-14T02:46:30;16.80;48.80
64549;DHT22;49838;51.798;10.954;2023-03-14T02:48:57;16.80;48.90
64549;DHT22;49838;51.798;10.954;2023-03-14T02:51:29;16.80;48.90
64549;DHT22;49838;51.798;10.954;2023-03-14T02:53:56;16.80;48.80
64549;DHT22;49838;51.798;10.954;2023-03-14T02:56:23;16.80;48.80
64549;DHT22;49838;51.798;10.954;2023-03-14T02:58:51;16.70;48.70
64549;DHT22;49838;51.798;10.954;2023-03-14T03:01:18;16.70;48.70
64549;DHT22;49838;51.798;10.954;2023-03-14T03:03:47;16.70;48.60
64549;DHT22;49838;51.798;10.954;2023-03-14T03:06:14;16.60;48.70
64549;DHT22;49838;51.798;10.954;2023-03-14T03:08:42;16.60;48.80
64549;DHT22;49838;51.798;10.954;2023-03-14T03:11:10;16.60;48.80
64549;DHT22;49838;51.798;10.954;2023-03-14T03:13:37;16.60;48.80
64549;DHT22;49838;51.798;10.954;2023-03-14T03:16:04;16.60;48.70
64549;DHT22;49838;51.798;10.954;2023-03-14T03:18:32;16.50;48.70
64549;DHT22;49838;51.798;10.954;2023-03-14T03:21:01;16.50;48.70
64549;DHT22;49838;51.798;10.954;2023-03-14T03:23:29;16.50;48.70
64549;DHT22;49838;51.798;10.954;2023-03-14T03:25:57;16.50;48.70
64549;DHT22;49838;51.798;10.954;2023-03-14T03:28:24;16.50;48.60
64549;DHT22;49838;51.798;10.954;2023-03-14T03:30:51;16.50;48.60
64549;DHT22;49838;51.798;10.954;2023-03-14T03:33:19;16.50;48.60
64549;DHT22;49838;51.798;10.954;2023-03-14T03:35:48;16.40;48.50
64549;DHT22;49838;51.798;10.954;2023-03-14T03:38:18;16.40;48.50
64549;DHT22;49838;51.798;10.954;2023-03-14T03:40:45;16.40;48.60
64549;DHT22;49838;51.798;10.954;2023-03-14T03:43:13;16.40;48.60
64549;DHT22;49838;51.798;10.954;2023-03-14T03:45:40;16.40;48.60
64549;DHT22;49838;51.798;10.954;2023-03-14T03:48:07;16.30;48.50
64549;DHT22;49838;51.798;10.954;2023-03-14T03:50:35;16.30;48.50
64549;DHT22;49838;51.798;10.954;2023-03-14T03:53:02;16.30;48.40
64549;DHT22;49838;51.798;10.954;2023-03-14T03:55:31;16.30;48.50
64549;DHT22;49838;51.798;10.954;2023-03-14T03:57:58;16.30;48.50
64549;DHT22;49838;51.798;10.954;2023-03-14T04:00:25;16.30;48.60
64549;DHT22;49838;51.798;10.954;2023-03-14T04:02:52;16.30;48.60
64549;DHT22;49838;51.798;10.954;2023-03-14T04:05:20;16.30;48.60
64549;DHT22;49838;51.798;10.954;2023-03-14T04:07:47;16.30;49.20
64549;DHT22;49838;51.798;10.954;2023-03-14T04:10:14;16.30;48.60
64549;DHT22;49838;51.798;10.954;2023-03-14T04:12:43;16.30;48.50
64549;DHT22;49838;51.798;10.954;2023-03-14T04:15:10;16.20;48.50
64549;DHT22;49838;51.798;10.954;2023-03-14T04:17:37;16.30;48.60
64549;DHT22;49838;51.798;10.954;2023-03-14T04:20:05;16.30;48.60
64549;DHT22;49838;51.798;10.954;2023-03-14T04:22:36;16.30;48.60
64549;DHT22;49838;51.798;10.954;2023-03-14T04:25:05;16.30;48.60
64549;DHT22;49838;51.798;10.954;2023-03-14T04:27:33;16.30;48.60
64549;DHT22;49838;51.798;10.954;2023-03-14T04:30:01;16.30;48.60
64549;DHT22;49838;51.798;10.954;2023-03-14T04:32:29;16.30;48.70
64549;DHT22;49838;51.798;10.954;2023-03-14T04:34:56;16.30;48.70
64549;DHT22;49838;51.798;10.954;2023-03-14T04:37:24;16.30;48.70
64549;DHT22;49838;51.798;10.954;2023-03-14T04:39:51;16.30;48.60
64549;DHT22;49838;51.798;10.954;2023-03-14T04:42:18;16.30;48.70
64549;DHT22;49838;51.798;10.954;2023-03-14T04:44:45;16.30;48.60
64549;DHT22;49838;51.798;10.954;2023-03-14T04:47:16;16.30;48.70
64549;DHT22;49838;51.798;10.954;2023-03-14T04:49:44;16.30;49.20
64549;DHT22;49838;51.798;10.954;2023-03-14T04:52:11;16.30;48.70
64549;DHT22;49838;51.798;10.954;2023-03-14T04:54:38;16.30;48.50
64549;DHT22;49838;51.798;10.954;2023-03-14T04:57:05;16.30;48.60
64549;DHT22;49838;51.798;10.954;2023-03-14T04:59:33;16.30;48.60
64549;DHT22;49838;51.798;10.954;2023-03-14T05:02:00;16.30;48.60
64549;DHT22;49838;51.798;10.954;2023-03-14T05:04:28;16.30;48.60
64549;DHT22;49838;51.798;10.954;2023-03-14T05:06:58;16.30;48.60
64549;DHT22;49838;51.798;10.954;2023-03-14T05:09:26;16.30;48.50
64549;DHT22;49838;51.798;10.954;2023-03-14T05:11:53;16.40;48.60
64549;DHT22;49838;51.798;10.954;2023-03-14T05:14:20;16.40;48.60
64549;DHT22;49838;51.798;10.954;2023-03-14T05:16:47;16.50;48.40
64549;DHT22;49838;51.798;10.954;2023-03-14T05:19:15;16.50;48.50
64549;DHT22;49838;51.798;10.954;2023-03-14T05:21:43;16.50;48.50
64549;DHT22;49838;51.798;10.954;2023-03-14T05:24:11;16.50;48.40
64549;DHT22;49838;51.798;10.954;2023-03-14T05:26:38;16.50;48.50
64549;DHT22;49838;51.798;10.954;2023-03-14T05:29:05;16.50;48.40
64549;DHT22;49838;51.798;10.954;2023-03-14T05:31:33;16.50;48.50
64549;DHT22;49838;51.798;10.954;2023-03-14T05:34:03;16.60;48.50
64549;DHT22;49838;51.798;10.954;2023-03-14T05:36:30;16.70;48.60
64549;DHT22;49838;51.798;10.954;2023-03-14T05:38:58;16.70;48.50
64549;DHT22;49838;51.798;10.954;2023-03-14T05:41:26;16.80;48.50
64549;DHT22;49838;51.798;10.954;2023-03-14T05:43:53;16.70;48.40
64549;DHT22;49838;51.798;10.954;2023-03-14T05:46:20;16.80;48.40
64549;DHT22;49838;51.798;10.954;2023-03-14T05:48:47;16.80;48.60
64549;DHT22;49838;51.798;10.954;2023-03-14T05:51:15;16.80;48.40
64549;DHT22;49838;51.798;10.954;2023-03-14T05:53:42;16.80;48.30
64549;DHT22;49838;51.798;10.954;2023-03-14T05:56:11;16.90;48.30
64549;DHT22;49838;51.798;10.954;2023-03-14T05:58:38;16.90;48.30
64549;DHT22;49838;51.798;10.954;2023-03-14T06:01:05;16.80;48.30
64549;DHT22;49838;51.798;10.954;2023-03-14T06:03:33;16.80;48.30
64549;DHT22;49838;51.798;10.954;2023-03-14T06:06:01;16.80;48.30
64549;DHT22;49838;51.798;10.954;2023-03-14T06:08:29;16.80;48.30
64549;DHT22;49838;51.798;10.954;2023-03-14T06:10:56;16.70;48.20
64549;DHT22;49838;51.798;10.954;2023-03-14T06:13:25;16.80;48.20
64549;DHT22;49838;51.798;10.954;2023-03-14T06:15:52;16.70;48.80
64549;DHT22;49838;51.798;10.954;2023-03-14T06:18:20;16.70;48.20
64549;DHT22;49838;51.798;10.954;2023-03-14T06:20:47;16.70;48.20
64549;DHT22;49838;51.798;10.954;2023-03-14T06:23:14;16.70;48.20
64549;DHT22;49838;51.798;10.954;2023-03-14T06:25:42;16.70;48.20
64549;DHT22;49838;51.798;10.954;2023-03-14T06:28:09;16.80;48.30
64549;DHT22;49838;51.798;10.954;2023-03-14T06:30:37;16.70;48.10
64549;DHT22;49838;51.798;10.954;2023-03-14T06:33:05;16.80;48.20
64549;DHT22;49838;51.798;10.954;2023-03-14T06:35:32;16.80;48.20
64549;DHT22;49838;51.798;10.954;2023-03-14T06:38:00;16.90;48.80
64549;DHT22;49838;51.798;10.954;2023-03-14T06:40:27;17.00;48.20
64549;DHT22;49838;51.798;10.954;2023-03-14T06:42:54;17.10;48.00
64549;DHT22;49838;51.798;10.954;2023-03-14T06:45:22;17.10;48.10
64549;DHT22;49838;51.798;10.954;2023-03-14T06:47:50;17.20;48.20
64549;DHT22;49838;51.798;10.954;2023-03-14T06:50:17;17.20;48.10
64549;DHT22;49838;51.798;10.954;2023-03-14T06:52:45;17.30;48.10
64549;DHT22;49838;51.798;10.954;2023-03-14T06:55:13;17.40;48.00
64549;DHT22;49838;51.798;10.954;2023-03-14T06:57:41;17.60;48.10
64549;DHT22;49838;51.798;10.954;2023-03-14T07:00:10;18.20;48.70
64549;DHT22;49838;51.798;10.954;2023-03-14T07:02:38;18.90;48.90
64549;DHT22;49838;51.798;10.954;2023-03-14T07:05:07;19.40;48.90
64549;DHT22;49838;51.798;10.954;2023-03-14T07:07:36;19.70;49.10
64549;DHT22;49838;51.798;10.954;2023-03-14T07:10:03;20.00;49.30
64549;DHT22;49838;51.798;10.954;2023-03-14T07:12:31;20.30;49.20
64549;DHT22;49838;51.798;10.954;2023-03-14T07:14:59;20.50;48.70
64549;DHT22;49838;51.798;10.954;2023-03-14T07:17:26;20.70;48.60
64549;DHT22;49838;51.798;10.954;2023-03-14T07:19:53;20.90;48.30
64549;DHT22;49838;51.798;10.954;2023-03-14T07:22:22;21.00;48.50
64549;DHT22;49838;51.798;10.954;2023-03-14T07:24:49;20.80;48.00
64549;DHT22;49838;51.798;10.954;2023-03-14T07:27:17;20.70;47.90
64549;DHT22;49838;51.798;10.954;2023-03-14T07:29:44;20.60;47.90
64549;DHT22;49838;51.798;10.954;2023-03-14T07:32:11;20.80;47.60
64549;DHT22;49838;51.798;10.954;2023-03-14T07:34:40;21.00;48.00
64549;DHT22;49838;51.798;10.954;2023-03-14T07:37:08;21.30;47.40
64549;DHT22;49838;51.798;10.954;2023-03-14T07:39:37;21.50;47.70
64549;DHT22;49838;51.798;10.954;2023-03-14T07:42:04;21.90;48.00
64549;DHT22;49838;51.798;10.954;2023-03-14T07:44:32;22.20;48.10
64549;DHT22;49838;51.798;10.954;2023-03-14T07:46:59;22.50;47.60
64549;DHT22;49838;51.798;10.954;2023-03-14T07:49:26;22.70;47.30
64549;DHT22;49838;51.798;10.954;2023-03-14T07:51:54;22.90;47.50
64549;DHT22;49838;51.798;10.954;2023-03-14T07:54:21;22.80;45.90
64549;DHT22;49838;51.798;10.954;2023-03-14T07:56:50;22.60;46.30
64549;DHT22;49838;51.798;10.954;2023-03-14T07:59:18;22.50;46.30
64549;DHT22;49838;51.798;10.954;2023-03-14T08:01:45;22.20;46.40
64549;DHT22;49838;51.798;10.954;2023-03-14T08:04:13;22.10;46.30
64549;DHT22;49838;51.798;10.954;2023-03-14T08:06:40;21.90;46.20
64549;DHT22;49838;51.798;10.954;2023-03-14T08:09:07;21.70;46.20
64549;DHT22;49838;51.798;10.954;2023-03-14T08:11:34;21.60;45.80
64549;DHT22;49838;51.798;10.954;2023-03-14T08:14:03;21.50;45.80
64549;DHT22;49838;51.798;10.954;2023-03-14T08:16:30;21.30;45.80
64549;DHT22;49838;51.798;10.954;2023-03-14T08:18:57;21.20;46.20
64549;DHT22;49838;51.798;10.954;2023-03-14T08:21:25;21.10;46.40
64549;DHT22;49838;51.798;10.954;2023-03-14T08:23:52;21.00;46.30
64549;DHT22;49838;51.798;10.954;2023-03-14T08:26:19;21.00;46.30
64549;DHT22;49838;51.798;10.954;2023-03-14T08:28:47;20.90;46.10
64549;DHT22;49838;51.798;10.954;2023-03-14T08:31:16;20.70;46.50
64549;DHT22;49838;51.798;10.954;2023-03-14T08:33:43;20.70;46.60
64549;DHT22;49838;51.798;10.954;2023-03-14T08:36:11;20.70;46.60
64549;DHT22;49838;51.798;10.954;2023-03-14T08:38:38;20.80;46.40
64549;DHT22;49838;51.798;10.954;2023-03-14T08:41:08;20.70;46.00
64549;DHT22;49838;51.798;10.954;2023-03-14T08:43:35;20.70;46.00
64549;DHT22;49838;51.798;10.954;2023-03-14T08:46:03;20.80;45.50
64549;DHT22;49838;51.798;10.954;2023-03-14T08:48:31;21.00;45.00
64549;DHT22;49838;51.798;10.954;2023-03-14T08:51:03;21.20;45.50
64549;DHT22;49838;51.798;10.954;2023-03-14T08:53:31;21.20;45.70
64549;DHT22;49838;51.798;10.954;2023-03-14T08:55:59;21.30;45.10
64549;DHT22;49838;51.798;10.954;2023-03-14T08:58:26;21.30;45.70
64549;DHT22;49838;51.798;10.954;2023-03-14T09:00:55;21.60;46.70
64549;DHT22;49838;51.798;10.954;2023-03-14T09:03:22;22.30;47.60
64549;DHT22;49838;51.798;10.954;2023-03-14T09:05:51;22.90;48.60
64549;DHT22;49838;51.798;10.954;2023-03-14T09:08:19;23.50;48.20
64549;DHT22;49838;51.798;10.954;2023-03-14T09:10:46;24.20;47.70
64549;DHT22;49838;51.798;10.954;2023-03-14T09:13:13;24.80;48.20
64549;DHT22;49838;51.798;10.954;2023-03-14T09:15:41;25.40;48.00
64549;DHT22;49838;51.798;10.954;2023-03-14T09:18:09;26.00;47.80
64549;DHT22;49838;51.798;10.954;2023-03-14T09:20:36;26.70;48.60
64549;DHT22;49838;51.798;10.954;2023-03-14T09:23:04;27.30;46.60
64549;DHT22;49838;51.798;10.954;2023-03-14T09:25:31;27.70;47.20
64549;DHT22;49838;51.798;10.954;2023-03-14T09:27:59;28.30;47.20
64549;DHT22;49838;51.798;10.954;2023-03-14T09:30:26;28.70;47.10
64549;DHT22;49838;51.798;10.954;2023-03-14T09:32:53;29.20;45.40
64549;DHT22;49838;51.798;10.954;2023-03-14T09:35:20;29.50;43.60
64549;DHT22;49838;51.798;10.954;2023-03-14T09:37:48;29.60;43.60
64549;DHT22;49838;51.798;10.954;2023-03-14T09:40:17;29.70;42.30
64549;DHT22;49838;51.798;10.954;2023-03-14T09:42:50;29.60;42.30
64549;DHT22;49838;51.798;10.954;2023-03-14T09:45:20;29.20;41.30
64549;DHT22;49838;51.798;10.954;2023-03-14T09:47:52;28.90;41.70
64549;DHT22;49838;51.798;10.954;2023-03-14T09:50:22;28.60;41.30
64549;DHT22;49838;51.798;10.954;2023-03-14T09:52:52;28.40;41.50
64549;DHT22;49838;51.798;10.954;2023-03-14T09:55:24;28.30;42.00
64549;DHT22;49838;51.798;10.954;2023-03-14T09:57:54;28.30;41.80
64549;DHT22;49838;51.798;10.954;2023-03-14T10:00:25;28.10;41.00
64549;DHT22;49838;51.798;10.954;2023-03-14T10:02:56;27.70;39.30
64549;DHT22;49838;51.798;10.954;2023-03-14T10:05:28;27.20;40.00
64549;DHT22;49838;51.798;10.954;2023-03-14T10:07:55;26.70;39.70
64549;DHT22;49838;51.798;10.954;2023-03-14T10:10:23;26.20;40.50
64549;DHT22;49838;51.798;10.954;2023-03-14T10:12:56;25.90;40.80
64549;DHT22;49838;51.798;10.954;2023-03-14T10:15:26;25.70;40.60
64549;DHT22;49838;51.798;10.954;2023-03-14T10:17:58;25.40;40.00
64549;DHT22;49838;51.798;10.954;2023-03-14T10:20:31;25.10;40.20
64549;DHT22;49838;51.798;10.954;2023-03-14T10:23:00;24.90;40.40
64549;DHT22;49838;51.798;10.954;2023-03-14T10:25:32;24.70;40.10
64549;DHT22;49838;51.798;10.954;2023-03-14T10:28:00;24.50;40.20
64549;DHT22;49838;51.798;10.954;2023-03-14T10:30:30;24.30;40.80
64549;DHT22;49838;51.798;10.954;2023-03-14T10:33:07;24.30;40.30
64549;DHT22;49838;51.798;10.954;2023-03-14T10:35:35;24.10;40.60
64549;DHT22;49838;51.798;10.954;2023-03-14T10:38:03;24.10;41.00
64549;DHT22;49838;51.798;10.954;2023-03-14T10:40:32;24.00;40.40
64549;DHT22;49838;51.798;10.954;2023-03-14T10:43:04;23.90;41.00
64549;DHT22;49838;51.798;10.954;2023-03-14T10:45:35;23.80;40.40
64549;DHT22;49838;51.798;10.954;2023-03-14T10:48:06;23.70;39.60
64549;DHT22;49838;51.798;10.954;2023-03-14T10:50:48;23.50;40.50
64549;DHT22;49838;51.798;10.954;2023-03-14T10:53:17;23.50;40.20
64549;DHT22;49838;51.798;10.954;2023-03-14T10:55:46;23.30;40.10
64549;DHT22;49838;51.798;10.954;2023-03-14T10:58:20;23.10;40.10
64549;DHT22;49838;51.798;10.954;2023-03-14T11:00:51;23.00;40.20
64549;DHT22;49838;51.798;10.954;2023-03-14T11:03:24;23.00;41.10
64549;DHT22;49838;51.798;10.954;2023-03-14T11:05:56;23.30;41.60
64549;DHT22;49838;51.798;10.954;2023-03-14T11:08:27;23.70;42.50
64549;DHT22;49838;51.798;10.954;2023-03-14T11:11:06;24.40;44.20
64549;DHT22;49838;51.798;10.954;2023-03-14T11:13:41;25.00;44.90
64549;DHT22;49838;51.798;10.954;2023-03-14T11:16:20;25.70;45.70
64549;DHT22;49838;51.798;10.954;2023-03-14T11:18:57;26.60;46.50
64549;DHT22;49838;51.798;10.954;2023-03-14T11:21:41;27.50;46.90
64549;DHT22;49838;51.798;10.954;2023-03-14T11:24:21;28.20;44.60
64549;DHT22;49838;51.798;10.954;2023-03-14T11:26:57;28.70;43.50
64549;DHT22;49838;51.798;10.954;2023-03-14T11:29:31;29.10;43.50
64549;DHT22;49838;51.798;10.954;2023-03-14T11:32:10;29.50;44.00
64549;DHT22;49838;51.798;10.954;2023-03-14T11:34:42;29.90;43.30
64549;DHT22;49838;51.798;10.954;2023-03-14T11:37:14;30.00;41.90
64549;DHT22;49838;51.798;10.954;2023-03-14T11:39:51;29.80;41.60
64549;DHT22;49838;51.798;10.954;2023-03-14T11:42:24;29.60;41.80
64549;DHT22;49838;51.798;10.954;2023-03-14T11:44:53;29.20;41.20
64549;DHT22;49838;51.798;10.954;2023-03-14T11:47:23;28.90;41.30
64549;DHT22;49838;51.798;10.954;2023-03-14T11:49:53;28.70;41.40
64549;DHT22;49838;51.798;10.954;2023-03-14T11:52:27;28.40;41.30
64549;DHT22;49838;51.798;10.954;2023-03-14T11:55:00;28.00;40.30
64549;DHT22;49838;51.798;10.954;2023-03-14T11:57:33;27.60;40.40
64549;DHT22;49838;51.798;10.954;2023-03-14T12:00:02;27.20;39.80
64549;DHT22;49838;51.798;10.954;2023-03-14T12:02:38;26.90;40.20
64549;DHT22;49838;51.798;10.954;2023-03-14T12:11:05;26.10;40.30
64549;DHT22;49838;51.798;10.954;2023-03-14T12:13:40;25.90;40.20
64549;DHT22;49838;51.798;10.954;2023-03-14T12:16:18;25.60;40.30
64549;DHT22;49838;51.798;10.954;2023-03-14T12:18:53;25.40;40.40
64549;DHT22;49838;51.798;10.954;2023-03-14T12:21:20;25.20;40.70
64549;DHT22;49838;51.798;10.954;2023-03-14T12:23:52;25.10;41.20
64549;DHT22;49838;51.798;10.954;2023-03-14T12:26:21;25.00;41.30
64549;DHT22;49838;51.798;10.954;2023-03-14T12:28:51;25.00;41.30
64549;DHT22;49838;51.798;10.954;2023-03-14T12:31:37;24.90;41.10
64549;DHT22;49838;51.798;10.954;2023-03-14T12:39:47;24.80;40.80
64549;DHT22;49838;51.798;10.954;2023-03-14T12:42:36;24.70;40.60
64549;DHT22;49838;51.798;10.954;2023-03-14T12:45:15;24.60;40.90
64549;DHT22;49838;51.798;10.954;2023-03-14T12:47:57;24.80;41.10
64549;DHT22;49838;51.798;10.954;2023-03-14T12:50:34;24.80;40.80
64549;DHT22;49838;51.798;10.954;2023-03-14T12:56:12;24.60;40.90
64549;DHT22;49838;51.798;10.954;2023-03-14T12:59:05;24.60;40.90
64549;DHT22;49838;51.798;10.954;2023-03-14T13:01:47;24.50;40.70
64549;DHT22;49838;51.798;10.954;2023-03-14T13:04:20;24.40;40.60
64549;DHT22;49838;51.798;10.954;2023-03-14T13:06:55;24.30;40.40
64549;DHT22;49838;51.798;10.954;2023-03-14T13:09:35;24.00;40.60
64549;DHT22;49838;51.798;10.954;2023-03-14T13:12:18;23.70;40.60
64549;DHT22;49838;51.798;10.954;2023-03-14T13:14:50;23.40;41.00
64549;DHT22;49838;51.798;10.954;2023-03-14T13:17:22;23.00;41.30
64549;DHT22;49838;51.798;10.954;2023-03-14T13:19:54;22.70;41.20
64549;DHT22;49838;51.798;10.954;2023-03-14T13:22:24;21.90;39.20
64549;DHT22;49838;51.798;10.954;2023-03-14T13:25:00;21.00;38.80
64549;DHT22;49838;51.798;10.954;2023-03-14T13:27:30;20.10;38.70
64549;DHT22;49838;51.798;10.954;2023-03-14T13:29:58;19.20;38.80
64549;DHT22;49838;51.798;10.954;2023-03-14T13:32:33;18.40;39.20
64549;DHT22;49838;51.798;10.954;2023-03-14T13:35:15;17.60;39.50
64549;DHT22;49838;51.798;10.954;2023-03-14T13:37:45;17.00;39.90
64549;DHT22;49838;51.798;10.954;2023-03-14T13:40:19;16.60;40.40
64549;DHT22;49838;51.798;10.954;2023-03-14T13:42:58;16.10;40.60
64549;DHT22;49838;51.798;10.954;2023-03-14T13:45:27;15.60;40.80
64549;DHT22;49838;51.798;10.954;2023-03-14T13:47:56;15.20;41.30
64549;DHT22;49838;51.798;10.954;2023-03-14T13:50:24;14.90;41.70
64549;DHT22;49838;51.798;10.954;2023-03-14T13:52:57;14.60;42.00
64549;DHT22;49838;51.798;10.954;2023-03-14T13:55:24;14.30;42.40
64549;DHT22;49838;51.798;10.954;2023-03-14T13:57:53;14.00;42.80
64549;DHT22;49838;51.798;10.954;2023-03-14T14:00:22;13.80;43.10
64549;DHT22;49838;51.798;10.954;2023-03-14T14:02:53;13.70;43.20
64549;DHT22;49838;51.798;10.954;2023-03-14T14:05:22;13.60;43.40
64549;DHT22;49838;51.798;10.954;2023-03-14T14:07:53;13.50;43.50
64549;DHT22;49838;51.798;10.954;2023-03-14T14:10:20;13.40;43.60
64549;DHT22;49838;51.798;10.954;2023-03-14T14:12:50;13.30;43.70
64549;DHT22;49838;51.798;10.954;2023-03-14T14:15:23;13.20;44.20
64549;DHT22;49838;51.798;10.954;2023-03-14T14:17:54;13.10;44.20
64549;DHT22;49838;51.798;10.954;2023-03-14T14:20:27;12.80;44.10
64549;DHT22;49838;51.798;10.954;2023-03-14T14:23:00;12.60;44.20
64549;DHT22;49838;51.798;10.954;2023-03-14T14:25:29;12.40;44.20
64549;DHT22;49838;51.798;10.954;2023-03-14T14:27:57;12.30;44.40
64549;DHT22;49838;51.798;10.954;2023-03-14T14:30:26;12.20;44.50
64549;DHT22;49838;51.798;10.954;2023-03-14T14:33:11;12.10;44.60
64549;DHT22;49838;51.798;10.954;2023-03-14T14:35:51;12.00;44.60
64549;DHT22;49838;51.798;10.954;2023-03-14T14:38:21;11.90;44.80
64549;DHT22;49838;51.798;10.954;2023-03-14T14:40:49;11.80;44.80
64549;DHT22;49838;51.798;10.954;2023-03-14T14:43:18;11.60;44.90
64549;DHT22;49838;51.798;10.954;2023-03-14T14:45:50;11.60;44.90
64549;DHT22;49838;51.798;10.954;2023-03-14T14:48:20;11.50;45.00
64549;DHT22;49838;51.798;10.954;2023-03-14T14:50:54;11.30;45.10
64549;DHT22;49838;51.798;10.954;2023-03-14T14:53:26;11.30;45.30
64549;DHT22;49838;51.798;10.954;2023-03-14T14:55:56;11.20;45.40
64549;DHT22;49838;51.798;10.954;2023-03-14T14:58:27;11.10;45.50
64549;DHT22;49838;51.798;10.954;2023-03-14T15:00:59;11.10;45.50
64549;DHT22;49838;51.798;10.954;2023-03-14T15:03:32;10.90;45.70
64549;DHT22;49838;51.798;10.954;2023-03-14T15:06:03;10.90;46.00
64549;DHT22;49838;51.798;10.954;2023-03-14T15:08:31;10.90;46.30
64549;DHT22;49838;51.798;10.954;2023-03-14T15:10:58;10.80;45.80
64549;DHT22;49838;51.798;10.954;2023-03-14T15:13:25;10.70;45.80
64549;DHT22;49838;51.798;10.954;2023-03-14T15:15:53;10.70;46.00
64549;DHT22;49838;51.798;10.954;2023-03-14T15:18:22;10.70;46.00
64549;DHT22;49838;51.798;10.954;2023-03-14T15:20:51;10.60;46.10
64549;DHT22;49838;51.798;10.954;2023-03-14T15:23:20;10.60;46.20
64549;DHT22;49838;51.798;10.954;2023-03-14T15:25:48;10.60;46.30
64549;DHT22;49838;51.798;10.954;2023-03-14T15:28:16;10.60;46.20
64549;DHT22;49838;51.798;10.954;2023-03-14T15:30:46;10.60;46.20
64549;DHT22;49838;51.798;10.954;2023-03-14T15:33:14;10.60;46.30
64549;DHT22;49838;51.798;10.954;2023-03-14T15:35:41;10.70;46.20
64549;DHT22;49838;51.798;10.954;2023-03-14T15:38:09;10.70;46.00
64549;DHT22;49838;51.798;10.954;2023-03-14T15:40:42;10.80;46.30
64549;DHT22;49838;51.798;10.954;2023-03-14T15:43:12;10.80;46.30
64549;DHT22;49838;51.798;10.954;2023-03-14T15:45:39;10.80;46.40
64549;DHT22;49838;51.798;10.954;2023-03-14T15:48:08;10.70;46.40